createdAt,value
2018-02-09T00:00:14.354Z,9.63
2018-02-09T00:02:41.830Z,7.45
2018-02-09T00:05:09.300Z,7.62
2018-02-09T00:07:36.786Z,7.57
2018-02-09T00:10:04.284Z,7.62
2018-02-09T00:12:31.773Z,8.10
2018-02-09T00:14:59.259Z,6.97
2018-02-09T00:17:27.486Z,9.05
2018-02-09T00:19:54.962Z,8.73
2018-02-09T00:22:22.448Z,8.95
2018-02-09T00:24:50.717Z,8.15
2018-02-09T00:27:18.186Z,7.28
2018-02-09T00:29:46.425Z,7.40
2018-02-09T00:32:13.890Z,8.35
2018-02-09T00:34:41.354Z,7.87
2018-02-09T00:37:08.869Z,7.50
2018-02-09T00:39:36.347Z,8.10
2018-02-09T00:42:03.811Z,9.43
2018-02-09T00:44:31.282Z,8.35
2018-02-09T00:46:59.391Z,8.52
2018-02-09T00:49:26.922Z,7.35
2018-02-09T00:51:54.401Z,8.35
2018-02-09T00:54:22.657Z,10.70
2018-02-09T00:56:50.131Z,7.70
2018-02-09T00:59:18.389Z,7.12
2018-02-09T01:01:45.869Z,7.57
2018-02-09T01:04:13.361Z,7.83
2018-02-09T01:06:40.823Z,8.13
2018-02-09T01:09:08.299Z,7.85
2018-02-09T01:11:35.822Z,7.00
2018-02-09T01:14:03.318Z,6.97
2018-02-09T01:16:30.781Z,6.72
2018-02-09T01:18:58.449Z,7.87
2018-02-09T01:21:26.737Z,7.60
2018-02-09T01:23:54.206Z,7.60
2018-02-09T01:26:21.717Z,6.93
2018-02-09T01:28:49.188Z,7.87
2018-02-09T01:31:16.652Z,7.35
2018-02-09T01:33:44.192Z,8.52
2018-02-09T01:36:12.485Z,7.43
2018-02-09T01:38:39.993Z,7.53
2018-02-09T01:41:07.452Z,8.32
2018-02-09T01:43:35.690Z,9.23
2018-02-09T01:46:03.151Z,7.28
2018-02-09T01:48:30.652Z,7.87
2018-02-09T01:50:58.156Z,7.62
2018-02-09T01:53:25.616Z,7.95
2018-02-09T01:55:53.118Z,9.43
2018-02-09T01:58:20.606Z,7.40
2018-02-09T02:00:48.068Z,7.30
2018-02-09T02:03:15.564Z,6.95
2018-02-09T02:05:43.040Z,7.03
2018-02-09T02:08:11.297Z,7.30
2018-02-09T02:10:38.809Z,7.25
2018-02-09T02:13:06.307Z,7.55
2018-02-09T02:15:33.797Z,7.12
2018-02-09T02:18:01.280Z,7.28
2018-02-09T02:20:28.778Z,6.80
2018-02-09T02:22:56.273Z,7.53
2018-02-09T02:25:24.533Z,7.57
2018-02-09T02:27:52.008Z,7.28
2018-02-09T02:30:20.273Z,7.60
2018-02-09T02:32:47.744Z,6.82
2018-02-09T02:35:15.989Z,7.32
2018-02-09T02:37:43.480Z,7.07
2018-02-09T02:40:11.143Z,8.00
2018-02-09T02:42:38.596Z,6.82
2018-02-09T02:45:06.835Z,7.40
2018-02-09T02:47:34.323Z,8.30
2018-02-09T02:50:01.802Z,6.83
2018-02-09T02:52:30.039Z,7.30
2018-02-09T02:54:57.501Z,7.60
2018-02-09T02:57:24.961Z,7.10
2018-02-09T02:59:52.563Z,7.72
2018-02-09T03:02:20.066Z,6.35
2018-02-09T03:04:47.549Z,6.20
2018-02-09T03:07:15.006Z,7.70
2018-02-09T03:09:42.479Z,6.50
2018-02-09T03:12:10.720Z,6.85
2018-02-09T03:14:38.218Z,6.80
2018-02-09T03:17:06.435Z,6.55
2018-02-09T03:19:33.912Z,6.70
2018-02-09T03:22:01.371Z,5.95
2018-02-09T03:24:28.826Z,6.50
2018-02-09T03:26:56.327Z,6.90
2018-02-09T03:29:24.564Z,6.33
2018-02-09T03:31:52.045Z,6.32
2018-02-09T03:34:19.523Z,7.07
2018-02-09T03:36:47.732Z,6.50
2018-02-09T03:39:15.269Z,7.28
2018-02-09T03:41:43.481Z,7.15
2018-02-09T03:44:10.964Z,8.30
2018-02-09T03:46:38.432Z,7.50
2018-02-09T03:49:05.907Z,7.17
2018-02-09T03:51:34.166Z,6.65
2018-02-09T03:54:01.644Z,7.07
2018-02-09T03:56:29.864Z,6.27
2018-02-09T03:58:57.328Z,7.27
2018-02-09T04:01:24.787Z,7.35
2018-02-09T04:03:52.300Z,9.75
2018-02-09T04:06:19.805Z,7.17
2018-02-09T04:08:47.292Z,6.87
2018-02-09T04:11:14.762Z,6.70
2018-02-09T04:13:42.238Z,6.65
2018-02-09T04:16:09.767Z,7.72
2018-02-09T04:18:37.255Z,6.25
2018-02-09T04:21:04.717Z,8.25
2018-02-09T04:23:32.223Z,7.20
2018-02-09T04:25:59.690Z,6.45
2018-02-09T04:28:27.191Z,8.20
2018-02-09T04:30:55.218Z,8.53
2018-02-09T04:33:23.822Z,6.20
2018-02-09T04:35:52.089Z,6.55
2018-02-09T04:38:19.795Z,5.82
2018-02-09T04:40:47.284Z,5.32
2018-02-09T04:43:14.935Z,5.95
2018-02-09T04:45:42.403Z,5.07
2018-02-09T04:48:09.885Z,5.37
2018-02-09T04:50:37.429Z,5.07
2018-02-09T04:53:04.907Z,4.43
2018-02-09T04:55:32.432Z,5.07
2018-02-09T04:57:59.890Z,5.18
2018-02-09T05:00:27.417Z,7.00
2018-02-09T05:02:54.914Z,5.07
2018-02-09T05:05:22.388Z,7.20
2018-02-09T05:07:49.872Z,7.62
2018-02-09T05:10:18.149Z,8.88
2018-02-09T05:12:45.631Z,8.63
2018-02-09T05:15:14.040Z,10.07
2018-02-09T05:17:41.497Z,9.88
2018-02-09T05:20:09.002Z,7.00
2018-02-09T05:22:36.478Z,5.12
2018-02-09T05:25:04.714Z,10.98
2018-02-09T05:27:32.213Z,8.82
2018-02-09T05:30:00.433Z,6.95
2018-02-09T05:32:28.286Z,10.30
2018-02-09T05:34:55.826Z,6.72
2018-02-09T05:37:24.066Z,6.90
2018-02-09T05:39:51.562Z,8.57
2018-02-09T05:42:19.804Z,7.25
2018-02-09T05:44:47.673Z,6.62
2018-02-09T05:47:15.140Z,6.87
2018-02-09T05:49:42.629Z,6.75
2018-02-09T05:52:10.900Z,6.87
2018-02-09T05:54:38.377Z,9.38
2018-02-09T05:57:05.860Z,8.00
2018-02-09T05:59:33.346Z,7.07
2018-02-09T06:02:00.829Z,7.97
2018-02-09T06:04:28.320Z,7.10
2018-02-09T06:06:55.806Z,7.68
2018-02-09T06:09:23.315Z,8.30
2018-02-09T06:11:50.766Z,7.18
2018-02-09T06:14:18.231Z,7.37
2018-02-09T06:16:45.708Z,8.43
2018-02-09T06:19:13.174Z,6.97
2018-02-09T06:21:40.652Z,7.15
2018-02-09T06:24:08.209Z,6.65
2018-02-09T06:26:35.668Z,6.55
2018-02-09T06:29:03.179Z,6.85
2018-02-09T06:31:30.637Z,7.53
2018-02-09T06:33:58.101Z,6.45
2018-02-09T06:36:25.577Z,8.13
2018-02-09T06:38:53.056Z,7.05
2018-02-09T06:41:20.605Z,7.22
2018-02-09T06:43:48.070Z,10.15
2018-02-09T06:46:15.820Z,10.43
2018-02-09T06:48:43.288Z,9.02
2018-02-09T06:51:10.757Z,5.90
2018-02-09T06:53:38.538Z,5.93
2018-02-09T06:56:06.011Z,5.22
2018-02-09T06:58:33.457Z,5.55
2018-02-09T07:01:00.930Z,7.12
2018-02-09T07:03:29.165Z,6.53
2018-02-09T07:05:56.660Z,10.07
2018-02-09T07:08:24.877Z,12.75
2018-02-09T07:10:52.340Z,10.90
2018-02-09T07:13:19.812Z,9.65
2018-02-09T07:15:47.293Z,10.07
2018-02-09T07:18:14.794Z,10.20
2018-02-09T07:20:42.260Z,7.25
2018-02-09T07:23:09.737Z,7.10
2018-02-09T07:25:37.226Z,7.03
2018-02-09T07:28:04.764Z,11.23
2018-02-09T07:30:32.305Z,8.85
2018-02-09T07:32:59.784Z,12.57
2018-02-09T07:35:27.336Z,8.80
2018-02-09T07:37:54.866Z,15.05
2018-02-09T07:40:23.129Z,13.48
2018-02-09T07:42:51.366Z,11.48
2018-02-09T07:45:18.839Z,8.13
2018-02-09T07:47:46.346Z,8.57
2018-02-09T07:50:15.884Z,13.95
2018-02-09T07:52:43.364Z,8.82
2018-02-09T07:55:10.877Z,9.30
2018-02-09T07:57:38.355Z,7.32
2018-02-09T08:00:05.849Z,7.80
2018-02-09T08:02:34.128Z,6.05
2018-02-09T08:05:01.607Z,8.43
2018-02-09T08:07:29.440Z,8.00
2018-02-09T08:09:56.898Z,6.70
2018-02-09T08:12:24.361Z,8.15
2018-02-09T08:14:51.841Z,6.47
2018-02-09T08:17:20.112Z,7.45
2018-02-09T08:19:48.334Z,8.10
2018-02-09T08:22:15.830Z,6.32
2018-02-09T08:24:43.309Z,7.97
2018-02-09T08:27:11.589Z,6.95
2018-02-09T08:29:39.085Z,6.05
2018-02-09T08:32:06.563Z,7.85
2018-02-09T08:34:34.048Z,6.12
2018-02-09T08:37:01.535Z,7.50
2018-02-09T08:39:29.000Z,7.18
2018-02-09T08:41:56.458Z,5.70
2018-02-09T08:44:24.165Z,7.10
2018-02-09T08:46:51.635Z,6.60
2018-02-09T08:49:19.120Z,7.18
2018-02-09T08:51:47.405Z,6.20
2018-02-09T08:54:15.097Z,9.45
2018-02-09T08:56:42.605Z,10.52
2018-02-09T08:59:10.857Z,6.45
2018-02-09T09:01:38.370Z,5.87
2018-02-09T09:04:05.861Z,7.00
2018-02-09T09:06:33.344Z,7.90
2018-02-09T09:09:00.814Z,11.43
2018-02-09T09:11:29.039Z,9.70
2018-02-09T09:13:56.502Z,7.10
2018-02-09T09:16:24.043Z,6.35
2018-02-09T09:18:51.537Z,11.90
2018-02-09T09:21:19.002Z,8.05
2018-02-09T09:23:46.483Z,8.07
2018-02-09T09:26:14.726Z,5.75
2018-02-09T09:28:42.215Z,5.62
2018-02-09T09:31:10.462Z,7.03
2018-02-09T09:33:37.945Z,6.18
2018-02-09T09:36:05.428Z,5.60
2018-02-09T09:38:32.919Z,5.60
2018-02-09T09:41:00.405Z,5.47
2018-02-09T09:43:27.865Z,6.05
2018-02-09T09:45:55.362Z,5.45
2018-02-09T09:48:23.624Z,7.45
2018-02-09T09:50:51.109Z,5.97
2018-02-09T09:53:18.584Z,6.32
2018-02-09T09:55:46.353Z,6.20
2018-02-09T09:58:13.822Z,5.80
2018-02-09T10:00:42.135Z,5.87
2018-02-09T10:03:09.854Z,6.07
2018-02-09T10:05:37.319Z,6.82
2018-02-09T10:08:04.807Z,6.22
2018-02-09T10:10:32.347Z,6.90
2018-02-09T10:12:59.844Z,13.00
2018-02-09T10:15:28.099Z,8.90
2018-02-09T10:17:55.785Z,7.18
2018-02-09T10:20:23.282Z,6.43
2018-02-09T10:22:50.775Z,7.25
2018-02-09T10:25:18.270Z,9.60
2018-02-09T10:27:45.746Z,10.77
2018-02-09T10:41:44.767Z,16.10
2018-02-09T10:44:12.809Z,13.27
2018-02-09T10:46:41.619Z,12.55
2018-02-09T10:49:09.667Z,14.77
2018-02-09T10:51:37.686Z,13.68
2018-02-09T10:54:05.775Z,11.57
2018-02-09T10:56:35.088Z,12.85
2018-02-09T10:59:03.122Z,14.27
2018-02-09T11:01:37.070Z,22.13
2018-02-09T11:04:05.118Z,17.77
2018-02-09T11:06:33.192Z,19.80
2018-02-09T11:09:02.304Z,22.95
2018-02-09T11:11:30.344Z,16.35
2018-02-09T11:13:58.400Z,15.07
2018-02-09T11:16:26.443Z,9.43
2018-02-09T11:18:54.473Z,8.82
2018-02-09T11:21:22.532Z,9.68
2018-02-09T11:23:50.588Z,11.15
2018-02-09T11:26:19.489Z,10.95
2018-02-09T11:28:47.540Z,9.38
2018-02-09T11:31:16.329Z,9.27
2018-02-09T11:33:44.403Z,9.60
2018-02-09T11:36:12.471Z,13.27
2018-02-09T11:38:40.480Z,11.05
2018-02-09T11:41:08.565Z,9.20
2018-02-09T11:43:36.607Z,9.15
2018-02-09T11:46:04.650Z,9.57
2018-02-09T11:48:33.464Z,10.70
2018-02-09T11:51:02.293Z,12.98
2018-02-09T11:53:30.367Z,12.13
2018-02-09T11:55:58.442Z,9.80
2018-02-09T11:58:26.894Z,8.48
2018-02-09T12:00:54.947Z,7.55
2018-02-09T12:03:22.988Z,8.50
2018-02-09T12:05:51.028Z,8.18
2018-02-09T12:08:19.066Z,6.87
2018-02-09T12:10:47.135Z,7.68
2018-02-09T12:13:15.178Z,8.88
2018-02-09T12:15:43.233Z,9.05
2018-02-09T12:18:11.263Z,7.40
2018-02-09T12:20:39.298Z,7.12
2018-02-09T12:23:07.325Z,7.85
2018-02-09T12:25:35.397Z,7.18
2018-02-09T12:28:03.599Z,6.80
2018-02-09T12:30:31.663Z,8.15
2018-02-09T12:32:59.982Z,7.72
2018-02-09T12:35:28.023Z,6.30
2018-02-09T12:37:57.561Z,6.72
2018-02-09T12:40:25.595Z,9.80
2018-02-09T12:42:53.661Z,8.73
2018-02-09T12:45:21.665Z,6.37
2018-02-09T12:47:50.479Z,8.00
2018-02-09T12:50:18.531Z,7.40
2018-02-09T12:52:47.313Z,6.75
2018-02-09T12:55:16.152Z,8.38
2018-02-09T12:57:44.969Z,6.87
2018-02-09T13:00:13.269Z,7.43
2018-02-09T13:02:41.315Z,6.15
2018-02-09T13:05:09.362Z,6.97
2018-02-09T13:07:37.421Z,6.87
2018-02-09T13:10:05.532Z,14.48
2018-02-09T13:12:33.575Z,9.23
2018-02-09T13:15:01.601Z,11.23
2018-02-09T13:17:30.403Z,11.12
2018-02-09T13:19:58.459Z,9.32
2018-02-09T13:22:26.533Z,10.27
2018-02-09T13:24:56.079Z,9.88
2018-02-09T13:27:24.111Z,9.52
2018-02-09T13:29:52.156Z,10.10
2018-02-09T13:32:20.170Z,8.13
2018-02-09T13:34:48.247Z,10.23
2018-02-09T13:37:16.275Z,9.45
2018-02-09T13:39:45.099Z,11.20
2018-02-09T13:42:13.105Z,6.60
2018-02-09T13:44:41.149Z,9.70
2018-02-09T13:47:09.228Z,8.68
2018-02-09T13:49:38.030Z,9.13
2018-02-09T13:52:06.079Z,11.07
2018-02-09T13:54:34.913Z,9.13
2018-02-09T13:57:02.957Z,12.55
2018-02-09T13:59:31.786Z,12.35
2018-02-09T14:01:59.836Z,10.32
2018-02-09T14:04:27.892Z,8.80
2018-02-09T14:06:56.151Z,16.08
2018-02-09T14:09:24.340Z,10.23
2018-02-09T14:11:52.401Z,11.52
2018-02-09T14:14:21.239Z,8.35
2018-02-09T14:16:49.285Z,9.05
2018-02-09T14:19:17.331Z,8.13
2018-02-09T14:21:45.388Z,9.05
2018-02-09T14:24:14.929Z,9.80
2018-02-09T14:26:43.022Z,10.15
2018-02-09T14:29:11.044Z,9.68
2018-02-09T14:31:39.081Z,8.07
2018-02-09T14:34:07.120Z,11.75
2018-02-09T14:36:35.175Z,10.27
2018-02-09T14:39:04.138Z,10.77
2018-02-09T14:41:32.962Z,11.10
2018-02-09T14:44:01.023Z,13.88
2018-02-09T14:46:29.855Z,12.52
2018-02-09T14:48:57.899Z,11.98
2018-02-09T14:51:25.971Z,11.77
2018-02-09T14:53:53.974Z,12.18
2018-02-09T14:56:22.052Z,11.57
2018-02-09T14:58:50.202Z,12.55
2018-02-09T15:01:18.254Z,11.00
2018-02-09T15:03:46.342Z,12.00
2018-02-09T15:06:14.390Z,10.63
2018-02-09T15:08:42.453Z,9.57
2018-02-09T15:11:10.516Z,16.33
2018-02-09T15:13:38.561Z,10.77
2018-02-09T15:16:06.632Z,12.82
2018-02-09T15:18:34.680Z,13.95
2018-02-09T15:21:02.698Z,12.98
2018-02-09T15:23:30.771Z,14.85
2018-02-09T15:25:58.829Z,10.90
2018-02-09T15:28:26.882Z,14.32
2018-02-09T15:30:54.935Z,14.80
2018-02-09T15:33:22.979Z,12.65
2018-02-09T15:35:51.086Z,13.20
2018-02-09T15:38:19.135Z,12.37
2018-02-09T15:40:47.225Z,12.75
2018-02-09T15:43:15.317Z,21.70
2018-02-09T15:45:43.436Z,12.10
2018-02-09T15:48:12.240Z,15.15
2018-02-09T15:50:40.263Z,9.75
2018-02-09T15:53:08.327Z,10.88
2018-02-09T15:55:36.351Z,10.10
2018-02-09T15:58:04.410Z,8.30
2018-02-09T16:00:32.472Z,9.43
2018-02-09T16:03:00.498Z,10.30
2018-02-09T16:05:28.532Z,9.80
2018-02-09T16:07:56.595Z,9.40
2018-02-09T16:10:24.639Z,7.65
2018-02-09T16:12:52.695Z,7.12
2018-02-09T16:15:20.779Z,8.27
2018-02-09T16:17:48.851Z,7.45
2018-02-09T16:20:16.911Z,7.18
2018-02-09T16:22:45.049Z,6.47
2018-02-09T16:25:13.066Z,9.25
2018-02-09T16:27:41.127Z,9.05
2018-02-09T16:30:09.192Z,6.57
2018-02-09T16:32:37.237Z,7.30
2018-02-09T16:35:05.293Z,6.65
2018-02-09T16:37:34.106Z,6.18
2018-02-09T16:40:02.149Z,6.15
2018-02-09T16:42:30.222Z,6.80
2018-02-09T16:44:58.272Z,7.03
2018-02-09T16:47:26.646Z,21.12
2018-02-09T16:49:54.698Z,11.18
2018-02-09T16:52:22.734Z,7.37
2018-02-09T16:54:50.800Z,8.93
2018-02-09T16:57:18.849Z,8.48
2018-02-09T16:59:46.914Z,10.88
2018-02-09T17:02:14.965Z,10.25
2018-02-09T17:04:43.000Z,6.82
2018-02-09T17:07:11.061Z,7.82
2018-02-09T17:09:39.170Z,7.97
2018-02-09T17:12:07.296Z,5.53
2018-02-09T17:14:35.445Z,5.30
2018-02-09T17:17:03.482Z,5.65
2018-02-09T17:19:31.578Z,4.43
2018-02-09T17:22:00.332Z,5.68
2018-02-09T17:24:28.933Z,4.55
2018-02-09T17:26:57.614Z,4.47
2018-02-09T17:29:26.254Z,5.12
2018-02-09T17:31:55.125Z,11.20
2018-02-09T17:34:23.680Z,11.65
2018-02-09T17:36:51.757Z,8.40
2018-02-09T17:39:19.817Z,9.63
2018-02-09T17:41:47.906Z,15.10
2018-02-09T17:44:15.938Z,9.82
2018-02-09T17:46:44.050Z,14.00
2018-02-09T17:49:12.137Z,12.90
2018-02-09T17:51:40.172Z,8.27
2018-02-09T17:54:08.209Z,7.35
2018-02-09T17:56:36.285Z,7.32
2018-02-09T17:59:04.359Z,8.38
2018-02-09T18:01:32.392Z,6.55
2018-02-09T18:04:00.443Z,5.60
2018-02-09T18:06:29.272Z,12.02
2018-02-09T18:08:57.345Z,6.15
2018-02-09T18:11:25.536Z,6.57
2018-02-09T18:13:53.564Z,7.28
2018-02-09T18:16:21.610Z,6.95
2018-02-09T18:18:49.665Z,5.50
2018-02-09T18:21:17.702Z,8.10
2018-02-09T18:23:45.773Z,8.30
2018-02-09T18:26:13.852Z,6.60
2018-02-09T18:28:41.959Z,12.75
2018-02-09T18:31:09.972Z,7.60
2018-02-09T18:33:38.040Z,5.18
2018-02-09T18:36:06.078Z,5.93
2018-02-09T18:38:34.102Z,4.90
2018-02-09T18:41:02.158Z,6.95
2018-02-09T18:43:30.199Z,4.53
2018-02-09T18:45:58.325Z,4.95
2018-02-09T18:48:26.589Z,4.47
2018-02-09T18:50:54.624Z,4.28
2018-02-09T18:53:22.667Z,5.43
2018-02-09T18:55:51.699Z,5.43
2018-02-09T18:58:19.764Z,4.43
2018-02-09T19:00:47.777Z,6.50
2018-02-09T19:03:15.830Z,5.37
2018-02-09T19:05:43.883Z,5.07
2018-02-09T19:08:11.924Z,6.15
2018-02-09T19:10:40.887Z,4.78
2018-02-09T19:13:08.969Z,5.22
2018-02-09T19:15:36.989Z,6.37
2018-02-09T19:18:05.043Z,6.07
2018-02-09T19:20:33.111Z,4.43
2018-02-09T19:23:01.162Z,5.60
2018-02-09T19:25:29.220Z,4.40
2018-02-09T19:27:57.276Z,4.40
2018-02-09T19:30:25.345Z,5.30
2018-02-09T19:32:53.407Z,4.35
2018-02-09T19:35:21.472Z,5.37
2018-02-09T19:37:49.513Z,3.97
2018-02-09T19:40:17.542Z,4.47
2018-02-09T19:42:45.605Z,4.05
2018-02-09T19:45:13.631Z,4.03
2018-02-09T19:47:42.421Z,4.20
2018-02-09T19:50:10.454Z,4.90
2018-02-09T19:52:38.492Z,4.18
2018-02-09T19:55:06.544Z,6.37
2018-02-09T19:57:34.594Z,5.47
2018-02-09T20:00:03.421Z,4.22
2018-02-09T20:02:31.454Z,5.65
2018-02-09T20:04:59.483Z,6.07
2018-02-09T20:07:27.564Z,4.25
2018-02-09T20:09:55.610Z,4.75
2018-02-09T20:12:23.644Z,4.15
2018-02-09T20:14:52.478Z,4.18
2018-02-09T20:17:20.556Z,4.10
2018-02-09T20:19:48.832Z,4.22
2018-02-09T20:22:16.903Z,3.78
2018-02-09T20:24:44.929Z,4.22
2018-02-09T20:27:12.994Z,3.90
2018-02-09T20:29:41.055Z,4.15
2018-02-09T20:32:09.079Z,3.50
2018-02-09T20:34:37.093Z,4.57
2018-02-09T20:37:05.126Z,3.75
2018-02-09T20:39:33.190Z,9.90
2018-02-09T20:42:01.418Z,7.10
2018-02-09T20:44:29.444Z,5.47
2018-02-09T20:46:57.494Z,4.68
2018-02-09T20:49:25.548Z,5.12
2018-02-09T20:51:54.387Z,4.60
2018-02-09T20:54:22.442Z,5.15
2018-02-09T20:56:50.472Z,4.10
2018-02-09T20:59:18.549Z,4.60
2018-02-09T21:01:46.606Z,4.53
2018-02-09T21:04:14.690Z,4.05
2018-02-09T21:06:44.250Z,3.58
2018-02-09T21:09:12.478Z,4.28
2018-02-09T21:11:40.509Z,3.72
2018-02-09T21:14:08.565Z,3.85
2018-02-09T21:16:36.646Z,3.50
2018-02-09T21:19:04.688Z,3.50
2018-02-09T21:21:32.714Z,3.87
2018-02-09T21:24:00.785Z,4.20
2018-02-09T21:26:28.824Z,5.57
2018-02-09T21:28:56.890Z,4.80
2018-02-09T21:31:24.935Z,4.03
2018-02-09T21:33:53.006Z,4.05
2018-02-09T21:36:21.065Z,3.53
2018-02-09T21:38:49.105Z,5.35
2018-02-09T21:41:17.184Z,4.82
2018-02-09T21:43:45.259Z,3.30
2018-02-09T21:46:13.301Z,3.90
2018-02-09T21:48:41.356Z,3.37
2018-02-09T21:51:09.401Z,6.10
2018-02-09T21:53:38.256Z,5.87
2018-02-09T21:56:06.293Z,4.25
2018-02-09T21:58:34.332Z,6.87
2018-02-09T22:01:02.405Z,3.58
2018-02-09T22:03:30.428Z,4.12
2018-02-09T22:05:58.494Z,3.97
2018-02-09T22:08:26.562Z,4.07
2018-02-09T22:10:54.624Z,3.50
2018-02-09T22:13:22.678Z,3.50
2018-02-09T22:15:50.742Z,3.62
2018-02-09T22:18:19.551Z,4.18
2018-02-09T22:20:47.625Z,4.05
2018-02-09T22:23:15.687Z,3.33
2018-02-09T22:25:43.756Z,3.72
2018-02-09T22:28:11.800Z,4.18
2018-02-09T22:30:39.844Z,3.85
2018-02-09T22:33:07.908Z,3.30
2018-02-09T22:35:35.943Z,3.22
2018-02-09T22:38:04.745Z,3.50
2018-02-09T22:40:32.835Z,4.20
2018-02-09T22:43:00.876Z,2.95
2018-02-09T22:45:28.920Z,3.03
2018-02-09T22:47:56.959Z,2.90
2018-02-09T22:50:25.750Z,2.97
2018-02-09T22:52:53.768Z,3.20
2018-02-09T22:55:21.821Z,3.58
2018-02-09T22:57:49.903Z,3.10
2018-02-09T23:00:17.945Z,2.72
2018-02-09T23:02:45.960Z,3.10
2018-02-09T23:05:14.004Z,2.80
2018-02-09T23:07:42.155Z,2.40
2018-02-09T23:10:10.191Z,2.33
2018-02-09T23:12:38.245Z,2.87
2018-02-09T23:15:06.296Z,2.28
2018-02-09T23:17:34.344Z,2.60
2018-02-09T23:20:02.395Z,2.50
2018-02-09T23:22:30.419Z,2.78
2018-02-09T23:24:58.437Z,2.20
2018-02-09T23:27:26.459Z,2.10
2018-02-09T23:29:54.478Z,2.30
2018-02-09T23:32:22.559Z,2.42
2018-02-09T23:34:50.631Z,2.30
2018-02-09T23:37:18.637Z,2.42
2018-02-09T23:39:46.667Z,2.20
2018-02-09T23:42:14.724Z,2.65
2018-02-09T23:44:42.811Z,2.53
2018-02-09T23:47:10.842Z,3.12
2018-02-09T23:49:38.884Z,2.28
2018-02-09T23:52:06.918Z,1.83
2018-02-09T23:54:34.930Z,2.30
2018-02-09T23:57:03.006Z,1.90
2018-02-09T23:59:31.019Z,2.20
